Time;durP1;ratioP1;P1;durP2;ratioP2;P2;SDS_P1;SDS_P2;PMS_P1;PMS_P2;Temp;Humidity;BMP_temperature;BMP_pressure;BME280_temperature;BME280_humidity;BME280_pressure;Samples;Min_cycle;Max_cycle;Signal;HPM_P1;HPM_P2
2023/01/06 00:01:10;;;;;;;;;;;;;;;10.59;53.52;99904.94;5093506;28;19912;-37
2023/01/06 00:03:36;;;;;;;;;;;;;;;10.66;53.64;99906.59;5093430;28;19912;-37
2023/01/06 00:06:02;;;;;;;;;;;;;;;10.76;53.43;99906.22;5093580;28;19919;-36
2023/01/06 00:08:28;;;;;;;;;;;;;;;10.89;53.13;99914.22;5093348;28;20360;-37
2023/01/06 00:10:54;;;;;;;;;;;;;;;10.78;52.74;99919.34;5092011;28;19971;-36
2023/01/06 00:13:19;;;;;;;;;;;;;;;10.95;52.60;99926.75;5093218;28;19940;-36
2023/01/06 00:15:45;;;;;;;;;;;;;;;11.06;52.50;99919.16;5093365;28;19943;-36
2023/01/06 00:18:10;;;;;;;;;;;;;;;10.89;52.64;99913.41;5093082;28;19969;-36
2023/01/06 00:20:35;;;;;;;;;;;;;;;10.85;52.64;99925.47;5093636;28;19916;-36
2023/01/06 00:23:00;;;;;;;;;;;;;;;10.86;52.75;99935.94;5093122;28;19962;-37
2023/01/06 00:25:26;;;;;;;;;;;;;;;10.86;52.06;99925.28;5093057;28;20353;-37
2023/01/06 00:27:51;;;;;;;;;;;;;;;10.54;53.36;99926.81;5093122;28;19919;-36
2023/01/06 00:30:16;;;;;;;;;;;;;;;10.54;53.70;99932.13;5092786;28;19985;-37
2023/01/06 00:32:41;;;;;;;;;;;;;;;10.35;53.67;99939.00;5092917;28;19912;-36
2023/01/06 00:35:07;;;;;;;;;;;;;;;10.42;53.49;99939.84;5093094;28;19931;-36
2023/01/06 00:37:32;;;;;;;;;;;;;;;10.62;53.42;99939.13;5092922;28;20481;-36
2023/01/06 00:39:57;;;;;;;;;;;;;;;10.70;53.07;99941.59;5092715;28;20322;-36
2023/01/06 00:42:23;;;;;;;;;;;;;;;10.85;52.74;99936.13;5092756;28;19916;-36
2023/01/06 00:44:49;;;;;;;;;;;;;;;10.84;52.03;99939.81;5092643;28;19919;-38
2023/01/06 00:47:14;;;;;;;;;;;;;;;10.91;52.13;99946.81;5092675;28;20265;-37
2023/01/06 00:49:40;;;;;;;;;;;;;;;10.76;51.71;99948.81;5092977;28;20464;-37
2023/01/06 00:52:05;;;;;;;;;;;;;;;10.47;52.21;99952.56;5092544;28;20333;-37
2023/01/06 00:54:30;;;;;;;;;;;;;;;11.02;51.04;99952.56;5092459;28;19912;-37
2023/01/06 00:56:56;;;;;;;;;;;;;;;11.02;51.53;99964.03;5092703;28;19912;-37
2023/01/06 00:59:22;;;;;;;;;;;;;;;11.17;51.10;99960.38;5092949;28;20395;-37
2023/01/06 01:01:48;;;;;;;;;;;;;;;11.40;50.62;99957.34;5092986;28;19920;-37
2023/01/06 01:04:14;;;;;;;;;;;;;;;11.08;51.27;99965.06;5093111;28;19991;-37
2023/01/06 01:06:40;;;;;;;;;;;;;;;11.22;50.33;99969.41;5092929;28;20020;-37
2023/01/06 01:09:06;;;;;;;;;;;;;;;11.34;49.90;99973.09;5092905;28;19912;-37
2023/01/06 01:14:16;;;;;;;;;;;;;;;10.45;52.71;99970.56;5093095;28;20387;-37
2023/01/06 01:16:42;;;;;;;;;;;;;;;10.90;51.83;99968.31;5092784;28;19916;-37
2023/01/06 01:19:07;;;;;;;;;;;;;;;11.13;50.81;99962.63;5092586;28;19935;-37
2023/01/06 01:21:32;;;;;;;;;;;;;;;10.86;50.89;99965.22;5092071;28;19923;-37
2023/01/06 01:23:58;;;;;;;;;;;;;;;11.23;50.05;99967.56;5092598;28;19912;-37
2023/01/06 01:26:23;;;;;;;;;;;;;;;11.17;50.10;99968.38;5092511;28;20002;-36
2023/01/06 01:28:48;;;;;;;;;;;;;;;11.10;50.20;99965.69;5092425;28;20010;-36
2023/01/06 01:31:14;;;;;;;;;;;;;;;10.92;51.61;99964.41;5092635;28;19947;-36
2023/01/06 01:33:40;;;;;;;;;;;;;;;11.02;51.42;99968.53;5092284;28;20367;-37
2023/01/06 01:36:06;;;;;;;;;;;;;;;10.82;51.91;99974.63;5092337;28;19984;-37
2023/01/06 01:38:32;;;;;;;;;;;;;;;10.79;51.95;99976.84;5092446;28;19916;-37
2023/01/06 01:40:57;;;;;;;;;;;;;;;10.91;51.89;99981.41;5092202;28;20288;-37
2023/01/06 01:43:22;;;;;;;;;;;;;;;10.99;51.79;99975.09;5092324;28;19927;-37
2023/01/06 01:45:51;;;;;;;;;;;;;;;11.04;51.44;99971.81;5090822;28;19916;-37
2023/01/06 01:48:23;;;;;;;;;;;;;;;11.09;51.18;99972.84;5092116;28;19912;-36
2023/01/06 01:50:51;;;;;;;;;;;;;;;10.92;51.91;99959.06;5092157;28;20421;-36
2023/01/06 01:53:24;;;;;;;;;;;;;;;10.97;51.68;99953.16;5092014;28;20233;-36
2023/01/06 01:55:50;;;;;;;;;;;;;;;10.82;52.07;99950.66;5092524;28;19935;-36
2023/01/06 01:58:20;;;;;;;;;;;;;;;11.14;51.75;99941.13;5092460;28;19966;-36
2023/01/06 02:00:45;;;;;;;;;;;;;;;10.96;52.09;99946.19;5092009;28;19912;-36
2023/01/06 02:03:12;;;;;;;;;;;;;;;10.85;52.66;99946.78;5092269;28;20006;-36
2023/01/06 02:05:40;;;;;;;;;;;;;;;11.14;52.82;99962.44;5092263;28;20376;-37
2023/01/06 02:08:09;;;;;;;;;;;;;;;11.07;52.96;99958.09;5091903;28;20394;-36
2023/01/06 02:10:34;;;;;;;;;;;;;;;10.69;53.87;99947.97;5092099;28;20010;-36
2023/01/06 02:13:00;;;;;;;;;;;;;;;11.01;54.16;99950.94;5091938;28;19998;-37
2023/01/06 02:15:27;;;;;;;;;;;;;;;10.95;54.29;99958.69;5092037;28;19912;-36
2023/01/06 02:18:02;;;;;;;;;;;;;;;10.83;54.55;99944.31;5090993;28;19928;-37
2023/01/06 02:20:27;;;;;;;;;;;;;;;10.85;54.64;99942.28;5091929;28;19920;-37
2023/01/06 02:23:11;;;;;;;;;;;;;;;11.30;54.04;99953.22;5091629;28;19966;-37
2023/01/06 02:25:55;;;;;;;;;;;;;;;10.86;54.47;99949.25;5091857;28;19927;-37
2023/01/06 02:28:32;;;;;;;;;;;;;;;10.78;55.69;99940.63;5091090;28;19912;-37
2023/01/06 02:31:12;;;;;;;;;;;;;;;11.15;54.35;99924.09;5091605;28;20021;-36
2023/01/06 02:33:47;;;;;;;;;;;;;;;11.30;53.35;99915.91;5092461;28;19916;-36
2023/01/06 02:36:36;;;;;;;;;;;;;;;11.37;53.14;99923.13;5095714;28;20007;-37
2023/01/06 02:39:21;;;;;;;;;;;;;;;11.34;53.07;99908.34;5089946;28;19958;-36
2023/01/06 02:41:54;;;;;;;;;;;;;;;11.34;52.65;99893.16;5088351;28;20333;-37
2023/01/06 02:44:19;;;;;;;;;;;;;;;11.49;52.39;99903.63;5095797;28;19911;-36
2023/01/06 02:46:53;;;;;;;;;;;;;;;11.50;52.53;99904.47;5095695;28;19912;-37
2023/01/06 02:49:26;;;;;;;;;;;;;;;11.80;51.61;99904.03;5095339;28;19916;-37
2023/01/06 02:52:11;;;;;;;;;;;;;;;11.71;51.69;99908.75;5095368;28;20388;-36
2023/01/06 02:54:37;;;;;;;;;;;;;;;11.69;51.57;99900.97;5094842;28;20310;-37
2023/01/06 02:57:05;;;;;;;;;;;;;;;11.50;51.82;99897.28;5095060;28;20002;-37
2023/01/06 02:59:32;;;;;;;;;;;;;;;11.68;51.88;99891.31;5095333;28;20002;-36
2023/01/06 03:01:59;;;;;;;;;;;;;;;11.76;52.05;99882.28;5095479;28;19924;-37
2023/01/06 03:04:34;;;;;;;;;;;;;;;11.88;51.21;99885.13;5095450;28;19971;-37
2023/01/06 03:07:02;;;;;;;;;;;;;;;11.83;51.67;99892.94;5095090;28;20371;-37
2023/01/06 03:09:29;;;;;;;;;;;;;;;11.71;52.01;99882.91;5095760;28;19951;-37
2023/01/06 03:11:55;;;;;;;;;;;;;;;11.59;52.42;99881.88;5095129;28;20331;-36
2023/01/06 03:14:29;;;;;;;;;;;;;;;11.73;51.97;99858.72;5095118;28;20426;-37
2023/01/06 03:16:54;;;;;;;;;;;;;;;11.87;52.13;99844.31;5095191;28;19988;-37
2023/01/06 03:19:20;;;;;;;;;;;;;;;11.84;51.05;99846.56;5094851;28;19928;-37
2023/01/06 03:21:47;;;;;;;;;;;;;;;11.88;51.24;99824.63;5095028;28;19931;-37
2023/01/06 03:24:13;;;;;;;;;;;;;;;11.98;50.70;99836.75;5095207;28;19920;-36
2023/01/06 03:26:38;;;;;;;;;;;;;;;12.06;50.03;99849.84;5094900;28;19912;-36
2023/01/06 03:29:06;;;;;;;;;;;;;;;11.83;50.59;99848.44;5094789;28;19912;-36
2023/01/06 03:31:38;;;;;;;;;;;;;;;12.00;50.05;99848.03;5094896;28;19912;-37
2023/01/06 03:34:12;;;;;;;;;;;;;;;12.08;50.38;99851.25;5094712;28;20372;-36
2023/01/06 03:36:56;;;;;;;;;;;;;;;12.06;49.43;99849.84;5094824;28;19947;-36
2023/01/06 03:39:45;;;;;;;;;;;;;;;11.86;50.33;99844.53;5094504;28;19935;-36
2023/01/06 03:45:12;;;;;;;;;;;;;;;11.53;50.53;99864.88;5094216;28;20040;-37
2023/01/06 03:47:41;;;;;;;;;;;;;;;11.49;50.67;99847.66;5094345;28;20321;-37
2023/01/06 03:50:11;;;;;;;;;;;;;;;11.55;50.71;99852.16;5094672;28;19912;-37
2023/01/06 03:52:42;;;;;;;;;;;;;;;11.60;51.07;99853.41;5093955;28;20006;-37
2023/01/06 03:55:13;;;;;;;;;;;;;;;11.57;50.76;99854.63;5094112;28;19973;-37
2023/01/06 03:57:41;;;;;;;;;;;;;;;11.52;51.04;99862.44;5093908;28;19922;-37
2023/01/06 04:00:13;;;;;;;;;;;;;;;11.51;51.13;99863.44;5093853;28;20053;-37
2023/01/06 04:02:39;;;;;;;;;;;;;;;11.53;50.93;99874.72;5093778;28;19916;-37
2023/01/06 04:05:13;;;;;;;;;;;;;;;11.59;51.18;99878.41;5094112;28;20023;-36
2023/01/06 04:07:39;;;;;;;;;;;;;;;11.51;51.57;99887.44;5094265;28;20367;-38
2023/01/06 04:10:05;;;;;;;;;;;;;;;11.53;52.47;99902.19;5094608;28;19918;-37
2023/01/06 04:12:39;;;;;;;;;;;;;;;11.34;53.13;99909.16;5093959;28;20391;-37
2023/01/06 04:15:05;;;;;;;;;;;;;;;11.40;53.91;99906.72;5094484;28;19916;-37
2023/01/06 04:17:30;;;;;;;;;;;;;;;11.49;53.51;99922.28;5093709;28;20375;-37
2023/01/06 04:19:56;;;;;;;;;;;;;;;11.58;53.46;99914.91;5093856;28;19916;-37
2023/01/06 04:22:21;;;;;;;;;;;;;;;11.25;54.78;99914.91;5093426;28;19924;-37
2023/01/06 04:24:46;;;;;;;;;;;;;;;10.99;55.85;99915.69;5093420;28;19933;-36
2023/01/06 04:27:11;;;;;;;;;;;;;;;11.31;55.45;99903.44;5093291;28;19912;-37
2023/01/06 04:29:37;;;;;;;;;;;;;;;11.14;56.11;99909.16;5093377;28;20056;-37
2023/01/06 04:32:02;;;;;;;;;;;;;;;10.92;55.90;99911.16;5093480;28;19912;-36
2023/01/06 04:34:27;;;;;;;;;;;;;;;11.08;56.24;99917.97;5093450;28;19916;-37
2023/01/06 04:36:53;;;;;;;;;;;;;;;11.02;56.41;99909.94;5093152;28;19916;-37
2023/01/06 04:39:18;;;;;;;;;;;;;;;11.15;55.72;99928.63;5093120;28;19998;-37
2023/01/06 04:41:43;;;;;;;;;;;;;;;10.98;56.68;99935.34;5092682;28;20331;-37
2023/01/06 04:44:08;;;;;;;;;;;;;;;11.08;55.68;99933.94;5093252;28;19955;-37
2023/01/06 04:46:34;;;;;;;;;;;;;;;11.09;55.87;99948.06;5092836;28;20360;-37
2023/01/06 04:48:59;;;;;;;;;;;;;;;11.11;55.01;99944.19;5093165;28;19955;-36
2023/01/06 04:51:24;;;;;;;;;;;;;;;11.01;55.74;99935.75;5093166;28;20436;-36
2023/01/06 04:53:49;;;;;;;;;;;;;;;11.10;55.20;99955.03;5093117;28;19951;-34
2023/01/06 04:56:15;;;;;;;;;;;;;;;11.16;54.80;99962.22;5092154;28;20425;-36
2023/01/06 04:58:40;;;;;;;;;;;;;;;11.19;54.77;99953.00;5093108;28;19915;-36
2023/01/06 05:01:07;;;;;;;;;;;;;;;11.13;54.88;99967.94;5092054;28;20330;-36
2023/01/06 05:03:33;;;;;;;;;;;;;;;11.17;54.39;99981.69;5092738;28;19966;-36
2023/01/06 05:05:59;;;;;;;;;;;;;;;11.16;53.93;99970.22;5092792;28;19912;-36
2023/01/06 05:08:25;;;;;;;;;;;;;;;10.84;55.76;99995.72;5092039;28;20322;-37
2023/01/06 05:10:50;;;;;;;;;;;;;;;10.86;55.39;99996.34;5090692;28;19918;-37
2023/01/06 05:13:15;;;;;;;;;;;;;;;10.96;55.59;100008.25;5092251;28;20280;-37
2023/01/06 05:15:40;;;;;;;;;;;;;;;10.87;55.27;100006.81;5091780;28;19912;-37
2023/01/06 05:18:06;;;;;;;;;;;;;;;11.04;55.72;100003.78;5091737;28;19920;-37
2023/01/06 05:20:31;;;;;;;;;;;;;;;11.01;54.69;100009.50;5092122;28;19916;-36
2023/01/06 05:22:56;;;;;;;;;;;;;;;10.90;55.01;100002.91;5092204;28;19916;-36
2023/01/06 05:25:21;;;;;;;;;;;;;;;11.08;54.65;100005.00;5092165;28;20106;-37
2023/01/06 05:27:47;;;;;;;;;;;;;;;10.72;55.49;100008.78;5091594;28;19912;-36
2023/01/06 05:30:12;;;;;;;;;;;;;;;10.84;55.63;100009.03;5092133;28;19912;-36
2023/01/06 05:32:37;;;;;;;;;;;;;;;10.86;54.69;100021.13;5087976;28;19963;-36
2023/01/06 05:35:03;;;;;;;;;;;;;;;10.94;54.53;100033.44;5092318;28;20369;-36
2023/01/06 05:37:28;;;;;;;;;;;;;;;10.77;54.73;100022.31;5091466;28;19912;-37
2023/01/06 05:39:53;;;;;;;;;;;;;;;10.82;55.08;100043.84;5090950;28;20440;-37
2023/01/06 05:42:19;;;;;;;;;;;;;;;10.92;55.12;100059.44;5091660;28;19930;-36
2023/01/06 05:44:44;;;;;;;;;;;;;;;10.77;55.33;100056.91;5091764;28;19912;-37
2023/01/06 05:47:09;;;;;;;;;;;;;;;10.88;55.00;100084.81;5091472;28;20002;-37
2023/01/06 05:49:35;;;;;;;;;;;;;;;10.94;54.69;100076.84;5090626;28;19915;-37
2023/01/06 05:52:00;;;;;;;;;;;;;;;10.93;54.93;100085.88;5090196;28;19962;-36
2023/01/06 05:54:25;;;;;;;;;;;;;;;10.95;55.04;100094.50;5088935;28;19912;-36
2023/01/06 05:56:50;;;;;;;;;;;;;;;10.78;55.29;100117.13;5089472;28;20380;-37
2023/01/06 05:59:16;;;;;;;;;;;;;;;10.86;54.85;100106.31;5089053;28;20455;-35
2023/01/06 06:01:41;;;;;;;;;;;;;;;11.21;54.03;100110.78;5088395;28;19970;-37
2023/01/06 06:04:06;;;;;;;;;;;;;;;10.88;54.95;100111.44;5090134;28;19938;-37
2023/01/06 06:06:32;;;;;;;;;;;;;;;10.82;55.01;100112.25;5089787;28;20308;-36
2023/01/06 06:08:57;;;;;;;;;;;;;;;11.05;54.59;100123.41;5090155;28;19916;-37
2023/01/06 06:11:23;;;;;;;;;;;;;;;11.39;53.02;100128.91;5090136;28;19980;-36
2023/01/06 06:13:50;;;;;;;;;;;;;;;11.74;52.06;100124.28;5108040;28;19915;-37
2023/01/06 06:16:16;;;;;;;;;;;;;;;12.06;51.75;100127.25;5091562;28;19916;-36
2023/01/06 06:18:42;;;;;;;;;;;;;;;11.92;51.16;100115.75;5091455;28;20026;-41
2023/01/06 06:21:09;;;;;;;;;;;;;;;12.14;50.97;100121.72;5090859;28;19912;-36
2023/01/06 06:23:34;;;;;;;;;;;;;;;12.42;49.72;100118.03;5090737;28;19965;-36
2023/01/06 06:26:00;;;;;;;;;;;;;;;12.60;49.73;100128.88;5090744;28;20341;-36
2023/01/06 06:28:25;;;;;;;;;;;;;;;13.15;48.94;100125.06;5091123;28;19916;-36
2023/01/06 06:30:51;;;;;;;;;;;;;;;14.17;48.88;100133.19;5091145;28;19912;-37
2023/01/06 06:33:16;;;;;;;;;;;;;;;14.77;46.98;100138.03;5090722;28;19912;-36
2023/01/06 06:35:41;;;;;;;;;;;;;;;14.77;45.66;100135.34;5090222;28;19912;-37
2023/01/06 06:38:07;;;;;;;;;;;;;;;15.31;44.59;100130.25;5090669;28;19921;-37
2023/01/06 06:40:32;;;;;;;;;;;;;;;15.31;45.50;100140.97;5090780;28;19912;-36
2023/01/06 06:42:57;;;;;;;;;;;;;;;15.03;42.80;100134.28;5090879;28;20363;-37
2023/01/06 06:45:22;;;;;;;;;;;;;;;15.29;44.31;100138.50;5091004;28;20007;-36
2023/01/06 06:47:48;;;;;;;;;;;;;;;15.59;42.25;100141.22;5090946;28;20376;-37
2023/01/06 06:50:13;;;;;;;;;;;;;;;15.56;41.62;100155.09;5091735;28;19912;-37
2023/01/06 06:52:38;;;;;;;;;;;;;;;15.77;41.23;100153.00;5091502;28;19934;-37
2023/01/06 06:55:04;;;;;;;;;;;;;;;15.89;40.63;100161.06;5091236;28;19916;-36
2023/01/06 06:57:29;;;;;;;;;;;;;;;15.72;39.88;100164.34;5091459;28;20382;-36
2023/01/06 06:59:55;;;;;;;;;;;;;;;15.30;41.45;100164.25;5091051;28;20274;-37
2023/01/06 07:02:20;;;;;;;;;;;;;;;15.23;40.66;100153.63;5091166;28;19916;-37
2023/01/06 07:04:45;;;;;;;;;;;;;;;14.60;42.59;100172.59;5091344;28;20303;-37
2023/01/06 07:07:11;;;;;;;;;;;;;;;15.19;42.15;100165.84;5091310;28;20324;-37
2023/01/06 07:09:36;;;;;;;;;;;;;;;15.60;41.70;100156.25;5090890;28;20049;-37
2023/01/06 07:12:01;;;;;;;;;;;;;;;14.84;41.28;100168.28;5091059;28;19947;-38
2023/01/06 07:14:27;;;;;;;;;;;;;;;15.13;42.19;100161.38;5091242;28;19995;-35
2023/01/06 07:16:52;;;;;;;;;;;;;;;14.99;40.37;100159.88;5090697;28;20364;-36
2023/01/06 07:19:17;;;;;;;;;;;;;;;15.58;40.07;100149.50;5090851;28;19928;-36
2023/01/06 07:21:42;;;;;;;;;;;;;;;15.47;39.90;100150.25;5094593;28;19920;-37
2023/01/06 07:24:08;;;;;;;;;;;;;;;15.55;40.73;100144.56;5094520;28;20328;-36
2023/01/06 07:26:33;;;;;;;;;;;;;;;16.06;39.13;100145.94;5094255;28;20350;-37
2023/01/06 07:28:58;;;;;;;;;;;;;;;15.26;39.84;100149.69;5094008;28;20435;-37
2023/01/06 07:31:24;;;;;;;;;;;;;;;15.47;40.08;100134.16;5093983;28;19916;-36
2023/01/06 07:33:49;;;;;;;;;;;;;;;15.59;39.44;100141.22;5094332;28;20003;-37
2023/01/06 07:36:14;;;;;;;;;;;;;;;15.72;39.41;100145.56;5094177;28;19932;-37
2023/01/06 07:38:39;;;;;;;;;;;;;;;16.10;39.20;100154.38;5094338;28;20331;-37
2023/01/06 07:41:05;;;;;;;;;;;;;;;16.67;38.21;100164.63;5094161;28;19913;-37
2023/01/06 07:43:30;;;;;;;;;;;;;;;16.36;38.31;100155.84;5093830;28;19916;-36
2023/01/06 07:45:55;;;;;;;;;;;;;;;16.11;38.61;100162.19;5094291;28;19919;-36
2023/01/06 07:48:20;;;;;;;;;;;;;;;16.09;38.63;100160.78;5093666;28;19927;-36
2023/01/06 07:50:46;;;;;;;;;;;;;;;16.80;37.49;100170.56;5093978;28;19977;-36
2023/01/06 07:53:11;;;;;;;;;;;;;;;16.70;37.47;100172.22;5093878;28;19912;-36
2023/01/06 07:55:37;;;;;;;;;;;;;;;15.84;38.54;100164.47;5093992;28;19916;-36
2023/01/06 07:58:08;;;;;;;;;;;;;;;15.94;37.75;100178.13;5093768;28;19966;-35
2023/01/06 08:00:34;;;;;;;;;;;;;;;16.48;40.65;100183.50;5093481;28;19912;-37
2023/01/06 08:03:04;;;;;;;;;;;;;;;17.34;36.54;100181.19;5093356;28;19916;-35
2023/01/06 08:05:29;;;;;;;;;;;;;;;17.26;37.04;100192.28;5093954;28;19913;-36
2023/01/06 08:07:55;;;;;;;;;;;;;;;17.38;36.39;100197.63;5093602;28;20389;-36
2023/01/06 08:10:20;;;;;;;;;;;;;;;17.17;36.44;100202.63;5092980;28;19969;-37
2023/01/06 08:12:46;;;;;;;;;;;;;;;17.26;35.77;100215.69;5092950;28;19912;-35
2023/01/06 08:15:11;;;;;;;;;;;;;;;17.19;35.57;100221.19;5093496;28;19912;-36
2023/01/06 08:17:36;;;;;;;;;;;;;;;17.72;35.24;100201.28;5093333;28;19920;-36
2023/01/06 08:20:02;;;;;;;;;;;;;;;17.74;34.67;100238.72;5093226;28;19958;-36
2023/01/06 08:22:27;;;;;;;;;;;;;;;17.59;34.49;100237.38;5092530;28;19920;-36
2023/01/06 08:24:53;;;;;;;;;;;;;;;17.52;34.72;100238.56;5093127;28;19924;-36
2023/01/06 08:27:19;;;;;;;;;;;;;;;17.57;33.93;100242.19;5092847;28;19924;-37
2023/01/06 08:29:44;;;;;;;;;;;;;;;17.82;33.71;100245.63;5092772;28;19912;-36
2023/01/06 08:32:10;;;;;;;;;;;;;;;17.37;33.69;100241.75;5091722;28;19920;-37
2023/01/06 08:34:35;;;;;;;;;;;;;;;17.61;33.53;100242.53;5092621;28;20298;-37
2023/01/06 08:37:00;;;;;;;;;;;;;;;17.29;33.54;100245.63;5092706;28;19912;-36
2023/01/06 08:39:26;;;;;;;;;;;;;;;17.49;33.90;100247.09;5092426;28;19998;-35
2023/01/06 08:41:53;;;;;;;;;;;;;;;17.06;33.67;100237.56;5092356;28;19916;-36
2023/01/06 08:44:18;;;;;;;;;;;;;;;16.94;34.48;100242.94;5092369;28;19916;-36
2023/01/06 08:46:43;;;;;;;;;;;;;;;16.63;34.64;100244.06;5092454;28;19923;-36
2023/01/06 08:49:09;;;;;;;;;;;;;;;15.77;36.17;100226.25;5092220;28;20353;-36
2023/01/06 08:51:34;;;;;;;;;;;;;;;15.97;35.59;100227.84;5092511;28;19916;-37
2023/01/06 08:53:59;;;;;;;;;;;;;;;16.50;34.95;100227.06;5092085;28;20333;-36
2023/01/06 08:56:27;;;;;;;;;;;;;;;17.24;33.98;100218.59;5092206;28;19912;-37
2023/01/06 08:58:53;;;;;;;;;;;;;;;16.82;34.15;100210.69;5092129;28;19919;-37
2023/01/06 09:01:20;;;;;;;;;;;;;;;16.28;35.20;100205.31;5091959;28;19920;-36
2023/01/06 09:03:45;;;;;;;;;;;;;;;16.85;34.85;100193.25;5090487;28;20361;-36
2023/01/06 09:06:11;;;;;;;;;;;;;;;17.42;34.44;100185.38;5092172;28;19941;-38
2023/01/06 09:08:36;;;;;;;;;;;;;;;17.07;34.70;100178.16;5091927;28;19912;-37
2023/01/06 09:11:05;;;;;;;;;;;;;;;16.53;35.48;100174.78;5091910;28;20025;-36
2023/01/06 09:13:30;;;;;;;;;;;;;;;16.32;35.83;100168.09;5091775;28;19912;-38
2023/01/06 09:15:55;;;;;;;;;;;;;;;16.22;35.55;100156.03;5092072;28;19919;-37
2023/01/06 09:18:21;;;;;;;;;;;;;;;16.29;35.57;100158.59;5091231;28;19920;-37
2023/01/06 09:20:46;;;;;;;;;;;;;;;15.90;35.72;100150.13;5091369;28;20280;-35
2023/01/06 09:23:11;;;;;;;;;;;;;;;15.90;36.31;100154.69;5091308;28;19922;-35
2023/01/06 09:25:37;;;;;;;;;;;;;;;16.12;36.21;100153.09;5091638;28;19912;-36
2023/01/06 09:28:02;;;;;;;;;;;;;;;16.22;35.50;100139.94;5090972;28;19912;-35
2023/01/06 09:30:28;;;;;;;;;;;;;;;16.02;35.50;100148.28;5091288;28;20346;-35
2023/01/06 09:32:53;;;;;;;;;;;;;;;16.41;35.51;100164.00;5091161;28;20014;-36
2023/01/06 09:35:18;;;;;;;;;;;;;;;16.10;35.25;100146.31;5091664;28;19919;-36
2023/01/06 09:37:44;;;;;;;;;;;;;;;16.10;34.84;100147.13;5090526;28;20339;-36
2023/01/06 09:40:14;;;;;;;;;;;;;;;16.36;35.38;100153.94;5091318;28;19960;-35
2023/01/06 09:42:45;;;;;;;;;;;;;;;16.43;34.64;100159.22;5090679;28;20304;-36
2023/01/06 09:45:18;;;;;;;;;;;;;;;15.96;35.59;100151.06;5090846;28;19919;-36
2023/01/06 09:47:46;;;;;;;;;;;;;;;16.31;34.53;100143.06;5090953;28;19912;-36
2023/01/06 09:50:20;;;;;;;;;;;;;;;15.98;34.69;100140.94;5091156;28;20001;-36
2023/01/06 09:52:51;;;;;;;;;;;;;;;15.81;35.10;100146.13;5091050;28;19961;-36
2023/01/06 09:55:19;;;;;;;;;;;;;;;15.83;35.23;100135.97;5090828;28;20014;-36
2023/01/06 09:57:45;;;;;;;;;;;;;;;16.31;34.28;100135.03;5090811;28;19916;-37
2023/01/06 10:00:10;;;;;;;;;;;;;;;16.74;33.76;100136.56;5089209;28;20002;-37
2023/01/06 10:02:37;;;;;;;;;;;;;;;16.60;33.81;100137.84;5091087;28;19958;-36
2023/01/06 10:05:14;;;;;;;;;;;;;;;16.01;34.04;100137.75;5090483;28;19911;-37
2023/01/06 10:07:49;;;;;;;;;;;;;;;16.16;34.36;100148.91;5090862;28;19916;-38
2023/01/06 10:10:32;;;;;;;;;;;;;;;16.10;33.98;100143.63;5090776;28;19912;-36
2023/01/06 10:12:58;;;;;;;;;;;;;;;16.23;34.03;100135.38;5090318;28;20041;-36
2023/01/06 10:15:29;;;;;;;;;;;;;;;16.42;33.81;100134.22;5090800;28;19958;-37
2023/01/06 10:18:00;;;;;;;;;;;;;;;16.01;34.23;100138.59;5090549;28;20336;-37
2023/01/06 10:20:34;;;;;;;;;;;;;;;16.40;34.08;100148.94;5091041;28;19916;-36
2023/01/06 10:23:18;;;;;;;;;;;;;;;16.40;34.61;100143.56;5090278;28;19926;-37
2023/01/06 10:25:45;;;;;;;;;;;;;;;16.79;33.46;100147.44;5090657;28;19916;-38
2023/01/06 10:28:22;;;;;;;;;;;;;;;16.74;33.41;100139.25;5090774;28;20358;-37
2023/01/06 10:30:50;;;;;;;;;;;;;;;16.87;33.26;100132.03;5090847;28;20014;-36
2023/01/06 10:33:24;;;;;;;;;;;;;;;17.08;33.30;100131.44;5090648;28;19918;-35
2023/01/06 10:35:53;;;;;;;;;;;;;;;16.65;33.11;100135.28;5090554;28;19916;-37
2023/01/06 10:38:23;;;;;;;;;;;;;;;16.69;32.68;100141.81;5090460;28;19959;-36
2023/01/06 10:40:48;;;;;;;;;;;;;;;16.27;33.63;100141.09;5090430;28;20007;-36
2023/01/06 10:43:14;;;;;;;;;;;;;;;16.54;33.50;100134.22;5090528;28;20095;-36
2023/01/06 10:45:39;;;;;;;;;;;;;;;16.46;33.56;100139.13;5090222;28;19912;-36
2023/01/06 10:48:05;;;;;;;;;;;;;;;16.90;32.76;100134.25;5090113;28;19912;-36
2023/01/06 10:50:32;;;;;;;;;;;;;;;17.12;32.65;100137.16;5089787;28;19912;-37
2023/01/06 10:52:57;;;;;;;;;;;;;;;16.69;32.26;100120.31;5090483;28;19915;-36
2023/01/06 10:55:25;;;;;;;;;;;;;;;17.18;32.29;100120.88;5092099;28;19911;-36
2023/01/06 10:57:52;;;;;;;;;;;;;;;17.42;32.30;100115.44;5094475;28;20371;-36
2023/01/06 11:00:22;;;;;;;;;;;;;;;16.78;33.25;100101.97;5094172;28;20295;-36
2023/01/06 11:02:52;;;;;;;;;;;;;;;16.96;32.67;100092.97;5093919;28;19954;-37
2023/01/06 11:05:24;;;;;;;;;;;;;;;17.50;31.87;100100.78;5093837;28;19935;-36
2023/01/06 11:07:53;;;;;;;;;;;;;;;17.00;32.66;100094.97;5094274;28;19922;-36
2023/01/06 11:10:25;;;;;;;;;;;;;;;16.38;33.43;100082.03;5093847;28;19919;-36
2023/01/06 11:12:50;;;;;;;;;;;;;;;16.75;32.58;100076.41;5094255;28;20443;-37
2023/01/06 11:15:23;;;;;;;;;;;;;;;16.69;33.27;100080.03;5093921;28;20003;-35
2023/01/06 11:17:48;;;;;;;;;;;;;;;16.43;33.80;100075.97;5094330;28;20268;-36
2023/01/06 11:20:16;;;;;;;;;;;;;;;16.55;34.04;100070.59;5093992;28;20455;-36
2023/01/06 11:22:42;;;;;;;;;;;;;;;16.77;33.11;100079.69;5093620;28;19916;-36
2023/01/06 11:25:20;;;;;;;;;;;;;;;16.50;33.18;100063.22;5093750;28;19919;-37
2023/01/06 11:27:46;;;;;;;;;;;;;;;16.25;34.30;100059.97;5093696;28;19912;-37
2023/01/06 11:30:27;;;;;;;;;;;;;;;16.71;32.73;100059.09;5093843;28;19916;-36
2023/01/06 11:32:52;;;;;;;;;;;;;;;16.44;33.29;100056.09;5093880;28;19966;-36
2023/01/06 11:35:19;;;;;;;;;;;;;;;16.06;34.15;100053.88;5093657;28;20310;-37
2023/01/06 11:37:45;;;;;;;;;;;;;;;16.79;32.89;100044.47;5093419;28;20382;-37
2023/01/06 11:40:28;;;;;;;;;;;;;;;16.88;32.26;100048.47;5093941;28;19947;-36
2023/01/06 11:42:56;;;;;;;;;;;;;;;16.55;32.41;100047.22;5093425;28;19927;-36
2023/01/06 11:45:37;;;;;;;;;;;;;;;16.66;33.12;100052.81;5093252;28;19912;-37
2023/01/06 11:48:04;;;;;;;;;;;;;;;16.57;33.00;100045.09;5093330;28;20002;-36
2023/01/06 11:50:30;;;;;;;;;;;;;;;16.38;33.18;100049.78;5093294;28;19973;-36
2023/01/06 11:53:12;;;;;;;;;;;;;;;16.42;33.53;100042.09;5093337;28;19912;-36
2023/01/06 11:55:38;;;;;;;;;;;;;;;16.36;32.85;100037.66;5093521;28;20434;-34
2023/01/06 11:58:08;;;;;;;;;;;;;;;16.31;32.99;100041.03;5093357;28;19912;-37
2023/01/06 12:00:36;;;;;;;;;;;;;;;16.44;32.90;100036.50;5093071;28;19912;-36
2023/01/06 12:03:11;;;;;;;;;;;;;;;16.76;32.30;100040.41;5092766;28;20351;-36
2023/01/06 12:05:36;;;;;;;;;;;;;;;17.03;31.94;100047.97;5092918;28;19916;-37
2023/01/06 12:08:14;;;;;;;;;;;;;;;16.81;32.25;100053.13;5093269;28;19976;-37
2023/01/06 12:10:42;;;;;;;;;;;;;;;16.64;32.28;100058.44;5092891;28;20006;-36
2023/01/06 12:13:09;;;;;;;;;;;;;;;16.97;32.11;100055.09;5092609;28;19997;-36
2023/01/06 12:15:34;;;;;;;;;;;;;;;16.92;32.10;100055.00;5092587;28;19912;-36
2023/01/06 12:18:03;;;;;;;;;;;;;;;16.39;32.95;100062.19;5092472;28;20314;-36
2023/01/06 12:20:36;;;;;;;;;;;;;;;16.39;32.29;100059.50;5092669;28;19920;-36
2023/01/06 12:23:06;;;;;;;;;;;;;;;16.28;32.76;100024.56;5092801;28;19987;-36
2023/01/06 12:25:40;;;;;;;;;;;;;;;16.45;33.24;100057.75;5093084;28;20326;-36
2023/01/06 12:28:05;;;;;;;;;;;;;;;16.45;32.81;100057.75;5092894;28;19912;-37
2023/01/06 12:30:36;;;;;;;;;;;;;;;16.33;33.23;100052.34;5092380;28;19920;-37
2023/01/06 12:33:05;;;;;;;;;;;;;;;16.74;32.74;100057.84;5091814;28;19976;-35
2023/01/06 12:35:32;;;;;;;;;;;;;;;16.93;32.32;100055.84;5092323;28;19962;-36
2023/01/06 12:38:16;;;;;;;;;;;;;;;16.94;32.87;100069.00;5092231;28;19912;-36
2023/01/06 12:40:51;;;;;;;;;;;;;;;16.60;33.31;100066.16;5092342;28;19912;-38
2023/01/06 12:43:17;;;;;;;;;;;;;;;17.09;32.24;100065.00;5092129;28;19955;-36
2023/01/06 12:45:43;;;;;;;;;;;;;;;17.19;32.16;100063.34;5092224;28;19940;-37
2023/01/06 12:48:22;;;;;;;;;;;;;;;16.84;32.63;100062.63;5092267;28;19960;-36